Time;durP1;ratioP1;P1;durP2;ratioP2;P2;SDS_P1;SDS_P2;PMS_P1;PMS_P2;Temp;Humidity;BMP_temperature;BMP_pressure;BME280_temperature;BME280_humidity;BME280_pressure;Samples;Min_cycle;Max_cycle;Signal;HPM_P1;HPM_P2
2023/11/07 00:00:51;;;;;;;;;;;9.00;99.90;;;;;;8341402;28;19968;-70
2023/11/07 00:04:54;;;;;;;;;;;9.00;99.90;;;;;;8338562;28;19935;-70
2023/11/07 00:08:55;;;;;;;;;;;8.90;99.90;;;;;;8337273;28;19929;-69
2023/11/07 00:12:57;;;;;;;;;;;8.90;99.90;;;;;;8339496;28;19928;-69
2023/11/07 00:16:58;;;;;;;;;;;8.80;99.90;;;;;;8337424;28;20466;-69
2023/11/07 00:21:00;;;;;;;;;;;8.80;99.90;;;;;;8342737;28;19929;-69
2023/11/07 00:25:02;;;;;;;;;;;8.90;99.90;;;;;;8346392;28;19932;-70
2023/11/07 00:29:03;;;;;;;;;;;8.90;99.90;;;;;;8354539;28;19929;-70
2023/11/07 00:33:06;;;;;;;;;;;8.90;99.90;;;;;;8348624;28;19935;-70
2023/11/07 00:37:08;;;;;;;;;;;8.90;99.90;;;;;;8337674;28;19929;-69
2023/11/07 00:41:10;;;;;;;;;;;8.90;99.90;;;;;;8355438;28;19932;-70
2023/11/07 00:45:12;;;;;;;;;;;8.90;99.90;;;;;;8352485;28;19979;-70
2023/11/07 00:49:14;;;;;;;;;;;8.90;99.90;;;;;;8355000;28;19925;-69
2023/11/07 00:53:15;;;;;;;;;;;8.90;99.90;;;;;;8339654;28;20283;-70
2023/11/07 00:57:17;;;;;;;;;;;9.00;99.90;;;;;;8341596;28;19980;-70
2023/11/07 01:01:19;;;;;;;;;;;9.00;99.90;;;;;;8340973;28;20300;-70
2023/11/07 01:05:21;;;;;;;;;;;9.00;99.90;;;;;;8337271;28;19933;-69
2023/11/07 01:09:22;;;;;;;;;;;9.00;99.90;;;;;;8336277;28;19925;-70
2023/11/07 01:13:24;;;;;;;;;;;9.10;99.90;;;;;;8344677;28;20391;-70
2023/11/07 01:17:26;;;;;;;;;;;9.10;99.90;;;;;;8339641;28;20368;-69
2023/11/07 01:21:28;;;;;;;;;;;9.10;99.90;;;;;;8343845;28;20349;-70
2023/11/07 01:25:30;;;;;;;;;;;9.10;99.90;;;;;;8339812;28;19932;-70
2023/11/07 01:29:31;;;;;;;;;;;9.10;99.90;;;;;;8356066;28;19936;-70
2023/11/07 01:33:34;;;;;;;;;;;9.00;99.90;;;;;;8360575;28;19987;-70
2023/11/07 01:37:36;;;;;;;;;;;9.10;99.90;;;;;;8343998;28;20396;-70
2023/11/07 01:41:38;;;;;;;;;;;9.00;99.90;;;;;;8352546;28;20376;-69
2023/11/07 01:45:40;;;;;;;;;;;9.00;99.90;;;;;;8349684;28;20410;-70
2023/11/07 01:49:42;;;;;;;;;;;9.00;99.90;;;;;;8349648;28;19925;-70
2023/11/07 01:53:45;;;;;;;;;;;9.00;99.90;;;;;;8331932;28;19925;-69
2023/11/07 01:57:47;;;;;;;;;;;9.00;99.90;;;;;;8344325;28;20342;-70
2023/11/07 02:01:50;;;;;;;;;;;9.00;99.90;;;;;;8351929;28;19933;-69
2023/11/07 02:05:52;;;;;;;;;;;9.10;99.90;;;;;;8353136;28;19931;-69
2023/11/07 02:09:53;;;;;;;;;;;9.00;99.90;;;;;;8330567;28;19936;-69
2023/11/07 02:13:56;;;;;;;;;;;9.00;99.90;;;;;;8355322;28;19931;-69
2023/11/07 02:17:57;;;;;;;;;;;9.00;99.90;;;;;;8353340;28;19932;-70
2023/11/07 02:22:00;;;;;;;;;;;8.90;99.90;;;;;;8354788;28;19925;-69
2023/11/07 02:26:01;;;;;;;;;;;8.90;99.90;;;;;;8349197;28;19929;-70
2023/11/07 02:30:04;;;;;;;;;;;9.00;99.90;;;;;;8354694;28;20459;-70
2023/11/07 02:34:06;;;;;;;;;;;9.00;99.90;;;;;;8357621;28;19937;-69
2023/11/07 02:38:08;;;;;;;;;;;9.00;99.90;;;;;;8345154;28;20441;-70
2023/11/07 02:42:10;;;;;;;;;;;9.00;99.90;;;;;;8359422;28;19932;-69
2023/11/07 02:46:11;;;;;;;;;;;9.00;99.90;;;;;;8357930;28;19929;-69
2023/11/07 02:50:13;;;;;;;;;;;9.00;99.90;;;;;;8357981;28;19955;-70
2023/11/07 02:54:14;;;;;;;;;;;9.00;99.90;;;;;;8337706;28;22599;-69
2023/11/07 02:58:16;;;;;;;;;;;9.00;99.90;;;;;;8341269;28;19963;-69
2023/11/07 03:02:18;;;;;;;;;;;9.00;99.90;;;;;;8333713;28;19929;-69
2023/11/07 03:06:20;;;;;;;;;;;9.10;99.90;;;;;;8335167;28;19968;-69
2023/11/07 03:10:22;;;;;;;;;;;9.10;99.90;;;;;;8335799;28;20060;-69
2023/11/07 03:14:23;;;;;;;;;;;9.10;99.90;;;;;;8337933;28;19925;-69
2023/11/07 03:18:25;;;;;;;;;;;9.10;99.90;;;;;;8345304;28;21858;-70
2023/11/07 03:22:27;;;;;;;;;;;9.20;99.90;;;;;;8335299;28;20280;-70
2023/11/07 03:26:28;;;;;;;;;;;9.20;99.90;;;;;;8338066;28;19935;-69
2023/11/07 03:30:30;;;;;;;;;;;9.10;99.90;;;;;;8348697;28;19937;-69
2023/11/07 03:34:32;;;;;;;;;;;9.20;99.90;;;;;;8351049;28;19929;-69
2023/11/07 03:38:34;;;;;;;;;;;9.20;99.90;;;;;;8351476;28;19925;-69
2023/11/07 03:42:35;;;;;;;;;;;9.20;99.90;;;;;;8352738;28;20288;-69
2023/11/07 03:46:37;;;;;;;;;;;9.20;99.90;;;;;;8348711;28;19955;-69
2023/11/07 03:50:39;;;;;;;;;;;9.20;99.90;;;;;;8350900;28;19931;-69
2023/11/07 03:54:41;;;;;;;;;;;9.20;99.90;;;;;;8350423;28;20011;-69
2023/11/07 03:58:42;;;;;;;;;;;9.20;99.90;;;;;;8354887;28;19925;-70
2023/11/07 04:02:44;;;;;;;;;;;9.20;99.90;;;;;;8353306;28;19931;-69
2023/11/07 04:06:48;;;;;;;;;;;9.30;99.90;;;;;;8352826;28;19929;-70
2023/11/07 04:10:49;;;;;;;;;;;9.30;99.90;;;;;;8345219;28;19931;-70
2023/11/07 04:14:54;;;;;;;;;;;9.20;99.90;;;;;;8344283;28;19925;-70
2023/11/07 04:18:56;;;;;;;;;;;9.20;99.90;;;;;;8351273;28;19925;-70
2023/11/07 04:22:57;;;;;;;;;;;9.20;99.90;;;;;;8324776;28;19925;-69
2023/11/07 04:26:59;;;;;;;;;;;9.10;99.90;;;;;;8352773;28;19932;-69
2023/11/07 04:31:02;;;;;;;;;;;9.10;99.90;;;;;;8347663;28;20296;-70
2023/11/07 04:35:06;;;;;;;;;;;9.00;99.90;;;;;;8346060;28;19933;-70
2023/11/07 04:39:08;;;;;;;;;;;9.00;99.90;;;;;;8329342;28;19952;-69
2023/11/07 04:43:09;;;;;;;;;;;9.00;99.90;;;;;;8346347;28;19932;-70
2023/11/07 04:47:12;;;;;;;;;;;8.90;99.90;;;;;;8347388;28;20028;-69
2023/11/07 04:51:17;;;;;;;;;;;8.80;99.90;;;;;;8351614;28;19925;-70
2023/11/07 04:55:18;;;;;;;;;;;8.80;99.90;;;;;;8351652;28;19925;-69
2023/11/07 04:59:23;;;;;;;;;;;8.80;99.90;;;;;;8333787;28;19929;-70
2023/11/07 05:03:26;;;;;;;;;;;8.70;99.90;;;;;;8342583;28;19948;-69
2023/11/07 05:07:34;;;;;;;;;;;8.70;99.90;;;;;;8346333;28;19925;-69
2023/11/07 05:11:36;;;;;;;;;;;8.60;99.90;;;;;;8346872;28;20280;-69
2023/11/07 05:15:38;;;;;;;;;;;8.60;99.90;;;;;;8346584;28;19978;-69
2023/11/07 05:19:39;;;;;;;;;;;8.60;99.90;;;;;;8351592;28;19928;-70
2023/11/07 05:23:41;;;;;;;;;;;8.50;99.90;;;;;;8349598;28;20323;-70
2023/11/07 05:27:42;;;;;;;;;;;8.50;99.90;;;;;;8351464;28;19971;-70
2023/11/07 05:31:46;;;;;;;;;;;8.50;99.90;;;;;;8343234;28;19933;-69
2023/11/07 05:35:48;;;;;;;;;;;8.50;99.90;;;;;;8324514;28;19926;-70
2023/11/07 05:39:50;;;;;;;;;;;8.50;99.90;;;;;;8354421;28;19925;-70
2023/11/07 05:43:54;;;;;;;;;;;8.50;99.90;;;;;;8358730;28;20027;-70
2023/11/07 05:47:56;;;;;;;;;;;8.50;99.90;;;;;;8355507;28;20369;-70
2023/11/07 05:51:58;;;;;;;;;;;8.50;99.90;;;;;;8357363;28;20376;-70
2023/11/07 05:56:01;;;;;;;;;;;8.40;99.90;;;;;;8354207;28;19932;-70
2023/11/07 06:00:06;;;;;;;;;;;8.40;99.90;;;;;;8355375;28;19932;-70
2023/11/07 06:04:08;;;;;;;;;;;8.40;99.90;;;;;;8355974;28;20372;-70
2023/11/07 06:08:10;;;;;;;;;;;8.30;99.90;;;;;;8350491;28;19932;-70
2023/11/07 06:12:12;;;;;;;;;;;8.30;99.90;;;;;;8354576;28;19929;-70
2023/11/07 06:16:14;;;;;;;;;;;8.30;99.90;;;;;;8357011;28;19924;-70
2023/11/07 06:20:21;;;;;;;;;;;8.30;99.90;;;;;;8355078;28;19924;-70
2023/11/07 06:24:23;;;;;;;;;;;8.30;99.90;;;;;;8360040;28;19931;-70
2023/11/07 06:28:24;;;;;;;;;;;8.30;99.90;;;;;;8358753;28;19935;-70
2023/11/07 06:32:26;;;;;;;;;;;8.40;99.90;;;;;;8355021;28;19928;-70
2023/11/07 06:36:28;;;;;;;;;;;8.40;99.90;;;;;;8340906;28;20031;-70
2023/11/07 06:40:29;;;;;;;;;;;8.40;99.90;;;;;;8357320;28;19929;-70
2023/11/07 06:44:31;;;;;;;;;;;8.40;99.90;;;;;;8356620;28;19944;-70
2023/11/07 06:48:33;;;;;;;;;;;8.30;99.90;;;;;;8356823;28;20018;-70
2023/11/07 06:52:38;;;;;;;;;;;8.30;99.90;;;;;;8359353;28;19929;-70
2023/11/07 06:56:40;;;;;;;;;;;8.30;99.90;;;;;;8356583;28;19925;-70
2023/11/07 07:00:42;;;;;;;;;;;8.30;99.90;;;;;;8350654;28;20338;-70
2023/11/07 07:04:44;;;;;;;;;;;8.30;99.90;;;;;;8350534;28;19935;-70
2023/11/07 07:08:46;;;;;;;;;;;8.30;99.90;;;;;;8350021;28;19932;-70
2023/11/07 07:12:48;;;;;;;;;;;8.40;99.90;;;;;;8357150;28;19925;-70
2023/11/07 07:16:49;;;;;;;;;;;8.40;99.90;;;;;;8337149;28;20273;-69
2023/11/07 07:20:53;;;;;;;;;;;8.40;99.90;;;;;;8357630;28;19932;-70
2023/11/07 07:24:55;;;;;;;;;;;8.40;99.90;;;;;;8356578;28;19978;-70
2023/11/07 07:28:57;;;;;;;;;;;8.50;99.90;;;;;;8358325;28;19931;-69
2023/11/07 07:32:59;;;;;;;;;;;8.50;99.90;;;;;;8352627;28;19925;-69
2023/11/07 07:37:01;;;;;;;;;;;8.60;99.90;;;;;;8339107;28;19933;-69
2023/11/07 07:41:05;;;;;;;;;;;8.60;99.90;;;;;;8356973;28;19931;-69
2023/11/07 07:45:07;;;;;;;;;;;8.50;99.90;;;;;;8355822;28;19982;-70
2023/11/07 07:49:10;;;;;;;;;;;8.50;99.90;;;;;;8357259;28;19925;-69
2023/11/07 07:53:15;;;;;;;;;;;8.50;99.90;;;;;;8357781;28;19929;-69
2023/11/07 07:57:17;;;;;;;;;;;8.50;99.90;;;;;;8350990;28;20334;-69
2023/11/07 08:01:19;;;;;;;;;;;8.50;99.90;;;;;;8357305;28;20001;-70
2023/11/07 08:05:22;;;;;;;;;;;8.60;99.90;;;;;;8355309;28;20402;-69
2023/11/07 08:09:24;;;;;;;;;;;8.60;99.90;;;;;;8349137;28;19933;-69
2023/11/07 08:13:28;;;;;;;;;;;8.60;99.90;;;;;;8349398;28;19939;-69
2023/11/07 08:17:30;;;;;;;;;;;8.70;99.90;;;;;;8350233;28;19928;-70
2023/11/07 08:21:32;;;;;;;;;;;8.70;99.90;;;;;;8339148;28;19928;-69
2023/11/07 08:25:34;;;;;;;;;;;8.70;99.90;;;;;;8349667;28;19951;-70
2023/11/07 08:29:37;;;;;;;;;;;8.80;99.90;;;;;;8351952;28;20671;-69
2023/11/07 08:33:39;;;;;;;;;;;8.90;99.90;;;;;;8355006;28;19931;-69
2023/11/07 08:37:47;;;;;;;;;;;9.00;99.90;;;;;;8350250;28;19929;-69
2023/11/07 08:41:49;;;;;;;;;;;9.10;99.90;;;;;;8355579;28;20403;-69
2023/11/07 08:45:50;;;;;;;;;;;9.20;99.90;;;;;;8353504;28;20379;-69
2023/11/07 08:49:57;;;;;;;;;;;9.10;99.90;;;;;;8354390;28;19947;-70
2023/11/07 08:53:59;;;;;;;;;;;9.00;99.90;;;;;;8353726;28;19936;-69
2023/11/07 08:58:00;;;;;;;;;;;9.00;99.90;;;;;;8353631;28;19931;-69
2023/11/07 09:02:02;;;;;;;;;;;9.00;99.90;;;;;;8355110;28;20377;-69
2023/11/07 09:06:05;;;;;;;;;;;9.10;99.90;;;;;;8356224;28;20161;-69
2023/11/07 09:10:07;;;;;;;;;;;9.40;99.90;;;;;;8346744;28;19925;-69
2023/11/07 09:14:09;;;;;;;;;;;9.50;99.90;;;;;;8351130;28;19929;-70
2023/11/07 09:18:10;;;;;;;;;;;9.70;99.90;;;;;;8352286;28;19932;-70
2023/11/07 09:22:12;;;;;;;;;;;9.60;99.90;;;;;;8354450;28;20331;-69
2023/11/07 09:26:14;;;;;;;;;;;9.60;99.90;;;;;;8353372;28;19925;-69
2023/11/07 09:30:17;;;;;;;;;;;9.70;99.90;;;;;;8352941;28;19925;-69
2023/11/07 09:34:22;;;;;;;;;;;9.70;99.90;;;;;;8355678;28;19933;-69
2023/11/07 09:38:24;;;;;;;;;;;9.80;99.90;;;;;;8351707;28;19925;-69
2023/11/07 09:42:28;;;;;;;;;;;9.90;99.90;;;;;;8354731;28;19936;-70
2023/11/07 09:46:32;;;;;;;;;;;10.00;99.90;;;;;;8352747;28;20369;-69
2023/11/07 09:50:33;;;;;;;;;;;10.20;99.90;;;;;;8348068;28;20376;-70
2023/11/07 09:54:36;;;;;;;;;;;10.20;99.90;;;;;;8332052;28;19964;-70
2023/11/07 09:58:42;;;;;;;;;;;10.30;99.90;;;;;;8352912;28;20036;-70
2023/11/07 10:02:43;;;;;;;;;;;10.60;99.90;;;;;;8349808;28;19932;-70
2023/11/07 10:06:45;;;;;;;;;;;10.80;99.90;;;;;;8351864;28;19968;-69
2023/11/07 10:11:05;;;;;;;;;;;11.10;99.90;;;;;;8344180;28;19982;-69
2023/11/07 10:15:20;;;;;;;;;;;11.40;99.90;;;;;;8356693;28;20042;-69
2023/11/07 10:19:23;;;;;;;;;;;11.80;99.90;;;;;;8355149;28;20002;-69
2023/11/07 10:23:25;;;;;;;;;;;12.00;99.90;;;;;;8323939;28;19979;-69
2023/11/07 10:27:30;;;;;;;;;;;12.20;99.90;;;;;;8322610;28;19925;-69
2023/11/07 10:31:32;;;;;;;;;;;12.40;99.90;;;;;;8323898;28;19933;-70
2023/11/07 10:35:50;;;;;;;;;;;12.60;99.90;;;;;;8321853;28;19971;-69
2023/11/07 10:39:55;;;;;;;;;;;13.10;99.90;;;;;;8321101;28;20139;-70
2023/11/07 10:43:58;;;;;;;;;;;13.20;99.90;;;;;;8324925;28;19965;-69
2023/11/07 10:47:59;;;;;;;;;;;13.30;99.90;;;;;;8327456;28;19929;-70
2023/11/07 10:52:02;;;;;;;;;;;13.30;99.90;;;;;;8324581;28;19986;-70
2023/11/07 10:56:12;;;;;;;;;;;13.60;99.90;;;;;;8322620;28;19935;-70
2023/11/07 11:00:20;;;;;;;;;;;13.50;99.90;;;;;;8323673;28;20455;-70
2023/11/07 11:04:25;;;;;;;;;;;13.10;99.90;;;;;;8322448;28;19963;-69
2023/11/07 11:08:28;;;;;;;;;;;13.00;99.90;;;;;;8320677;28;20271;-69
2023/11/07 11:12:29;;;;;;;;;;;13.20;99.90;;;;;;8322862;28;19936;-70
2023/11/07 11:16:31;;;;;;;;;;;13.60;99.90;;;;;;8304546;28;19925;-69
2023/11/07 11:20:48;;;;;;;;;;;13.70;99.90;;;;;;8323299;28;19925;-69
2023/11/07 11:24:56;;;;;;;;;;;13.80;99.90;;;;;;8323719;28;19933;-69
2023/11/07 11:28:58;;;;;;;;;;;13.80;99.90;;;;;;8318635;28;20300;-69
2023/11/07 11:33:11;;;;;;;;;;;13.70;99.90;;;;;;8321417;28;20390;-69
2023/11/07 11:37:13;;;;;;;;;;;13.60;99.90;;;;;;8320919;28;19928;-69
2023/11/07 11:41:15;;;;;;;;;;;13.70;99.90;;;;;;8323881;28;20019;-69
2023/11/07 11:45:26;;;;;;;;;;;13.50;99.90;;;;;;8319800;28;19952;-69
2023/11/07 11:50:00;;;;;;;;;;;13.40;99.90;;;;;;8324986;28;19925;-69
2023/11/07 11:54:08;;;;;;;;;;;13.30;99.90;;;;;;8318262;28;20307;-69
2023/11/07 11:58:15;;;;;;;;;;;13.40;99.90;;;;;;8321301;28;19929;-69
2023/11/07 12:02:39;;;;;;;;;;;13.40;99.90;;;;;;8324046;28;19959;-69
2023/11/07 12:06:59;;;;;;;;;;;13.20;99.90;;;;;;8316814;28;19986;-69
2023/11/07 12:11:07;;;;;;;;;;;12.90;99.90;;;;;;8319430;28;19931;-69
2023/11/07 12:15:12;;;;;;;;;;;12.70;99.90;;;;;;8318240;28;19974;-70
2023/11/07 12:19:19;;;;;;;;;;;12.50;99.90;;;;;;8325492;28;19925;-70
2023/11/07 12:23:21;;;;;;;;;;;12.50;99.90;;;;;;8325308;28;19955;-69
2023/11/07 12:27:23;;;;;;;;;;;12.50;99.90;;;;;;8320772;28;24587;-69
2023/11/07 12:31:32;;;;;;;;;;;12.40;99.90;;;;;;8321144;28;20649;-70
2023/11/07 12:35:34;;;;;;;;;;;12.40;99.90;;;;;;8317872;28;19925;-70
2023/11/07 12:39:37;;;;;;;;;;;12.40;99.90;;;;;;8319639;28;20381;-70
2023/11/07 12:43:40;;;;;;;;;;;12.30;99.90;;;;;;8320574;28;19928;-70
2023/11/07 12:47:52;;;;;;;;;;;12.30;99.90;;;;;;8319867;28;19943;-70
2023/11/07 12:51:55;;;;;;;;;;;12.30;99.90;;;;;;8320328;28;19932;-70
2023/11/07 12:55:57;;;;;;;;;;;12.50;99.90;;;;;;8317883;28;19929;-70
2023/11/07 12:59:59;;;;;;;;;;;12.60;99.90;;;;;;8319207;28;19929;-70
2023/11/07 13:04:07;;;;;;;;;;;12.60;99.90;;;;;;8318477;28;20284;-70
2023/11/07 13:08:09;;;;;;;;;;;12.50;99.90;;;;;;8318693;28;19978;-70
2023/11/07 13:12:14;;;;;;;;;;;12.40;99.90;;;;;;8319306;28;19928;-70
2023/11/07 13:16:17;;;;;;;;;;;12.50;99.90;;;;;;8318157;28;19971;-70
2023/11/07 13:20:18;;;;;;;;;;;12.60;99.90;;;;;;8319479;28;19925;-70
2023/11/07 13:24:20;;;;;;;;;;;12.80;99.90;;;;;;8318002;28;20356;-70
2023/11/07 13:28:22;;;;;;;;;;;12.80;99.90;;;;;;8323292;28;19972;-70
2023/11/07 13:32:25;;;;;;;;;;;12.70;99.90;;;;;;8325453;28;19933;-70
2023/11/07 13:36:27;;;;;;;;;;;12.90;99.90;;;;;;8318952;28;20380;-70
2023/11/07 13:40:29;;;;;;;;;;;12.90;99.90;;;;;;8321542;28;19932;-70
2023/11/07 13:44:31;;;;;;;;;;;12.90;99.90;;;;;;8318274;28;19956;-69
2023/11/07 13:48:33;;;;;;;;;;;12.70;99.90;;;;;;8323602;28;19936;-69
2023/11/07 13:52:35;;;;;;;;;;;12.60;99.90;;;;;;8324683;28;19933;-69
2023/11/07 13:56:37;;;;;;;;;;;12.50;99.90;;;;;;8323852;28;19936;-70
2023/11/07 14:00:38;;;;;;;;;;;12.50;99.90;;;;;;8324325;28;19953;-69
2023/11/07 14:04:40;;;;;;;;;;;12.50;99.90;;;;;;8326387;28;19932;-70
2023/11/07 14:08:42;;;;;;;;;;;12.40;99.90;;;;;;8326114;28;20026;-70
2023/11/07 14:12:44;;;;;;;;;;;12.30;99.90;;;;;;8322674;28;20300;-69
2023/11/07 14:16:46;;;;;;;;;;;12.10;99.90;;;;;;8322604;28;19940;-70
2023/11/07 14:20:49;;;;;;;;;;;12.10;99.90;;;;;;8323146;28;19956;-70
2023/11/07 14:24:50;;;;;;;;;;;12.10;99.90;;;;;;8323051;28;20392;-70
2023/11/07 14:28:52;;;;;;;;;;;12.00;99.90;;;;;;8324093;28;19929;-70
2023/11/07 14:33:02;;;;;;;;;;;12.20;99.90;;;;;;8324166;28;19929;-70
2023/11/07 14:37:03;;;;;;;;;;;12.80;99.90;;;;;;8322825;28;19968;-70
2023/11/07 14:41:07;;;;;;;;;;;13.00;99.90;;;;;;8324535;28;24267;-70
2023/11/07 14:45:09;;;;;;;;;;;13.10;99.90;;;;;;8324675;28;19925;-70
2023/11/07 14:49:15;;;;;;;;;;;13.00;99.90;;;;;;8327700;28;20224;-70
2023/11/07 14:53:18;;;;;;;;;;;12.70;99.90;;;;;;8322087;28;19925;-70
2023/11/07 14:57:20;;;;;;;;;;;12.40;99.90;;;;;;8322801;28;19925;-70
2023/11/07 15:01:22;;;;;;;;;;;12.10;99.90;;;;;;8322578;28;20073;-69
2023/11/07 15:05:27;;;;;;;;;;;11.90;99.90;;;;;;8321396;28;19925;-70
2023/11/07 15:29:38;;;;;;;;;;;11.50;99.90;;;;;;8322661;28;20111;-69
2023/11/07 15:33:40;;;;;;;;;;;11.40;99.90;;;;;;8322591;28;19929;-70
2023/11/07 15:37:42;;;;;;;;;;;11.40;99.90;;;;;;8322648;28;19925;-70
2023/11/07 15:41:44;;;;;;;;;;;11.40;99.90;;;;;;8321449;28;19936;-70
2023/11/07 15:45:45;;;;;;;;;;;11.40;99.90;;;;;;8320293;28;19940;-70
2023/11/07 16:05:11;;;;;;;;;;;11.30;99.90;;;;;;8322535;28;20007;-70
2023/11/07 16:09:13;;;;;;;;;;;11.10;99.90;;;;;;8324525;28;20296;-70
2023/11/07 16:13:16;;;;;;;;;;;11.00;99.90;;;;;;8316859;28;19939;-70
2023/11/07 16:17:18;;;;;;;;;;;11.00;99.90;;;;;;8318786;28;20488;-70
2023/11/07 16:21:20;;;;;;;;;;;10.90;99.90;;;;;;8321099;28;19933;-69
2023/11/07 16:25:23;;;;;;;;;;;10.80;99.90;;;;;;8317695;28;19990;-70
2023/11/07 16:29:25;;;;;;;;;;;10.80;99.90;;;;;;8325657;28;20262;-70
2023/11/07 16:33:26;;;;;;;;;;;10.80;99.90;;;;;;8331230;28;19956;-70
2023/11/07 16:37:30;;;;;;;;;;;10.70;99.90;;;;;;8322697;28;19932;-70
2023/11/07 16:41:33;;;;;;;;;;;10.70;99.90;;;;;;8313379;28;19929;-70
2023/11/07 16:45:34;;;;;;;;;;;10.70;99.90;;;;;;8318770;28;19933;-70
2023/11/07 16:49:37;;;;;;;;;;;10.70;99.90;;;;;;8314633;28;19932;-70
2023/11/07 16:53:39;;;;;;;;;;;10.70;99.90;;;;;;8308610;28;20320;-70
2023/11/07 16:57:42;;;;;;;;;;;10.60;99.90;;;;;;8320694;28;19966;-70
2023/11/07 17:01:44;;;;;;;;;;;10.50;99.90;;;;;;8320333;28;19940;-70
2023/11/07 17:05:45;;;;;;;;;;;10.40;99.90;;;;;;8318246;28;19975;-70
2023/11/07 17:14:50;;;;;;;;;;;10.30;99.90;;;;;;8317957;28;19971;-70
2023/11/07 17:18:52;;;;;;;;;;;10.30;99.90;;;;;;8319924;28;20329;-70
2023/11/07 17:22:54;;;;;;;;;;;10.30;99.90;;;;;;8318053;28;19933;-70
2023/11/07 17:26:56;;;;;;;;;;;10.20;99.90;;;;;;8317775;28;20343;-70
2023/11/07 17:30:58;;;;;;;;;;;10.20;99.90;;;;;;8320972;28;19933;-70
2023/11/07 17:35:03;;;;;;;;;;;10.20;99.90;;;;;;8317019;28;20024;-70
2023/11/07 17:39:13;;;;;;;;;;;10.10;99.90;;;;;;8323496;28;19975;-69
2023/11/07 17:43:16;;;;;;;;;;;10.00;99.90;;;;;;8326724;28;19929;-70
2023/11/07 17:47:18;;;;;;;;;;;9.90;99.90;;;;;;8318327;28;19925;-70
2023/11/07 17:51:22;;;;;;;;;;;9.90;99.90;;;;;;8321501;28;20356;-69
2023/11/07 17:55:23;;;;;;;;;;;9.80;99.90;;;;;;8305506;28;19924;-69
2023/11/07 17:59:26;;;;;;;;;;;9.80;99.90;;;;;;8322759;28;19932;-69
2023/11/07 18:03:28;;;;;;;;;;;9.70;99.90;;;;;;8319245;28;19930;-69
2023/11/07 18:07:30;;;;;;;;;;;9.60;99.90;;;;;;8319929;28;19979;-70
2023/11/07 18:11:33;;;;;;;;;;;9.50;99.90;;;;;;8318820;28;19936;-70
2023/11/07 18:15:36;;;;;;;;;;;9.50;99.90;;;;;;8319451;28;19996;-70
2023/11/07 18:19:37;;;;;;;;;;;9.50;99.90;;;;;;8322816;28;19929;-69
2023/11/07 18:23:40;;;;;;;;;;;9.50;99.90;;;;;;8315930;28;19964;-70
2023/11/07 18:27:43;;;;;;;;;;;9.50;99.90;;;;;;8318667;28;19925;-70
2023/11/07 18:31:45;;;;;;;;;;;9.40;99.90;;;;;;8300796;28;20016;-70
2023/11/07 18:35:46;;;;;;;;;;;9.50;99.90;;;;;;8324029;28;19929;-69
2023/11/07 18:39:48;;;;;;;;;;;9.40;99.90;;;;;;8327780;28;19925;-70
2023/11/07 18:43:50;;;;;;;;;;;9.50;99.90;;;;;;8324359;28;20003;-69
2023/11/07 18:47:52;;;;;;;;;;;9.40;99.90;;;;;;8325553;28;19936;-69
2023/11/07 18:51:54;;;;;;;;;;;9.50;99.90;;;;;;8327951;28;20308;-69
2023/11/07 18:55:56;;;;;;;;;;;9.50;99.90;;;;;;8321543;28;19933;-70
2023/11/07 18:59:57;;;;;;;;;;;9.50;99.90;;;;;;8337938;28;20329;-69
2023/11/07 19:03:59;;;;;;;;;;;9.50;99.90;;;;;;8323231;28;19933;-69
2023/11/07 19:08:01;;;;;;;;;;;9.50;99.90;;;;;;8324400;28;19925;-69
2023/11/07 19:12:02;;;;;;;;;;;9.40;99.90;;;;;;8326132;28;20379;-70
2023/11/07 19:16:04;;;;;;;;;;;9.40;99.90;;;;;;8326638;28;19931;-70
2023/11/07 19:20:06;;;;;;;;;;;9.40;99.90;;;;;;8327310;28;19988;-70
2023/11/07 19:24:10;;;;;;;;;;;9.40;99.90;;;;;;8320880;28;19936;-70
2023/11/07 19:28:11;;;;;;;;;;;9.40;99.90;;;;;;8323793;28;19933;-69
2023/11/07 19:32:13;;;;;;;;;;;9.30;99.90;;;;;;8323741;28;20308;-69
2023/11/07 19:36:15;;;;;;;;;;;9.20;99.90;;;;;;8321737;28;19951;-70
2023/11/07 19:40:22;;;;;;;;;;;9.20;99.90;;;;;;8327924;28;19929;-70
2023/11/07 19:44:23;;;;;;;;;;;9.10;99.90;;;;;;8321652;28;19925;-69
2023/11/07 19:48:26;;;;;;;;;;;9.10;99.90;;;;;;8321572;28;19968;-70
2023/11/07 19:52:28;;;;;;;;;;;9.10;99.90;;;;;;8320827;28;19929;-69
2023/11/07 19:56:34;;;;;;;;;;;9.10;99.90;;;;;;8320822;28;19928;-70
2023/11/07 20:00:36;;;;;;;;;;;9.10;99.90;;;;;;8321875;28;19929;-70
2023/11/07 20:04:37;;;;;;;;;;;9.10;99.90;;;;;;8321449;28;19925;-69
2023/11/07 20:08:40;;;;;;;;;;;9.00;99.90;;;;;;8322547;28;19929;-69
2023/11/07 20:12:41;;;;;;;;;;;9.00;99.90;;;;;;8322279;28;19932;-69
2023/11/07 20:16:43;;;;;;;;;;;9.00;99.90;;;;;;8304756;28;19976;-69
2023/11/07 20:20:45;;;;;;;;;;;9.00;99.90;;;;;;8319838;28;19925;-70
2023/11/07 20:24:47;;;;;;;;;;;9.00;99.90;;;;;;8321462;28;19968;-70
2023/11/07 20:28:49;;;;;;;;;;;8.90;99.90;;;;;;8320710;28;20296;-69
2023/11/07 20:32:51;;;;;;;;;;;8.90;99.90;;;;;;8319761;28;20471;-70
2023/11/07 20:36:53;;;;;;;;;;;8.90;99.90;;;;;;8319952;28;19929;-69
2023/11/07 20:40:56;;;;;;;;;;;8.90;99.90;;;;;;8320743;28;19943;-69
2023/11/07 20:44:58;;;;;;;;;;;9.00;99.90;;;;;;8315243;28;19936;-69
2023/11/07 20:49:08;;;;;;;;;;;9.00;99.90;;;;;;8316926;28;20011;-69
2023/11/07 20:53:10;;;;;;;;;;;9.10;99.90;;;;;;8318743;28;19929;-70
2023/11/07 20:57:12;;;;;;;;;;;9.10;99.90;;;;;;8320445;28;20048;-70
2023/11/07 21:01:16;;;;;;;;;;;9.10;99.90;;;;;;8320057;28;20324;-70
2023/11/07 21:05:19;;;;;;;;;;;9.00;99.90;;;;;;8319023;28;19939;-69
2023/11/07 21:09:21;;;;;;;;;;;8.90;99.90;;;;;;8324318;28;19933;-69
2023/11/07 21:13:25;;;;;;;;;;;8.80;99.90;;;;;;8320021;28;19959;-70
2023/11/07 21:17:27;;;;;;;;;;;8.80;99.90;;;;;;8302799;28;19971;-69
2023/11/07 21:21:28;;;;;;;;;;;8.70;99.90;;;;;;8321043;28;19948;-69
2023/11/07 21:25:30;;;;;;;;;;;8.70;99.90;;;;;;8320205;28;19965;-69
2023/11/07 21:29:32;;;;;;;;;;;8.70;99.90;;;;;;8318378;28;19952;-70
2023/11/07 21:33:33;;;;;;;;;;;8.70;99.90;;;;;;8320064;28;19929;-70
2023/11/07 21:37:37;;;;;;;;;;;8.70;99.90;;;;;;8319422;28;19925;-70
2023/11/07 21:41:38;;;;;;;;;;;8.70;99.90;;;;;;8323772;28;19925;-69
2023/11/07 21:45:40;;;;;;;;;;;8.80;99.90;;;;;;8318553;28;19929;-70
2023/11/07 21:49:43;;;;;;;;;;;8.80;99.90;;;;;;8318716;28;19925;-69
2023/11/07 21:53:45;;;;;;;;;;;8.80;99.90;;;;;;8320073;28;20289;-69
2023/11/07 21:57:46;;;;;;;;;;;8.80;99.90;;;;;;8319149;28;20376;-69
2023/11/07 22:01:48;;;;;;;;;;;8.80;99.90;;;;;;8327816;28;19951;-70
2023/11/07 22:05:50;;;;;;;;;;;8.80;99.90;;;;;;8349909;28;19990;-70
2023/11/07 22:09:52;;;;;;;;;;;8.80;99.90;;;;;;8349400;28;19928;-70
2023/11/07 22:13:54;;;;;;;;;;;8.80;99.90;;;;;;8357658;28;19979;-70
2023/11/07 22:17:55;;;;;;;;;;;8.70;99.90;;;;;;8357429;28;20288;-70
2023/11/07 22:21:58;;;;;;;;;;;8.70;99.90;;;;;;8358677;28;20039;-69
2023/11/07 22:26:00;;;;;;;;;;;8.70;99.90;;;;;;8358729;28;19979;-69
2023/11/07 22:30:08;;;;;;;;;;;8.70;99.90;;;;;;8358574;28;19952;-70
2023/11/07 22:34:09;;;;;;;;;;;8.70;99.90;;;;;;8353590;28;19933;-69
2023/11/07 22:38:11;;;;;;;;;;;8.70;99.90;;;;;;8359647;28;19955;-70
2023/11/07 22:42:13;;;;;;;;;;;8.70;99.90;;;;;;8342012;28;19924;-69
2023/11/07 22:46:15;;;;;;;;;;;8.70;99.90;;;;;;8354373;28;20030;-69
2023/11/07 22:50:18;;;;;;;;;;;8.80;99.90;;;;;;8360432;28;20364;-69
2023/11/07 22:54:19;;;;;;;;;;;8.80;99.90;;;;;;8355375;28;19983;-69
2023/11/07 23:18:36;;;;;;;;;;;8.90;99.90;;;;;;8354751;28;20308;-69
2023/11/07 23:22:38;;;;;;;;;;;8.90;99.90;;;;;;8357003;28;20051;-69
2023/11/07 23:26:40;;;;;;;;;;;8.90;99.90;;;;;;8355472;28;19924;-69
2023/11/07 23:46:02;;;;;;;;;;;8.80;99.90;;;;;;8353497;28;19962;-70
2023/11/07 23:50:05;;;;;;;;;;;8.70;99.90;;;;;;8355790;28;19935;-70
2023/11/07 23:54:06;;;;;;;;;;;8.70;99.90;;;;;;8353009;28;20398;-69
2023/11/07 23:58:08;;;;;;;;;;;8.60;99.90;;;;;;8355784;28;20330;-69
